Flight Track Log - Related Links

Times and Time Zones

All times are in EDT time to prevent confusion due to time zone crossing. See the N213SR flight status page for this flight to view local times or setup timezone preferences in your user account.

Time Position Orientation Groundspeed Altitude Reporting Facility
EDT Latitude Longitude Course Direction KTS MPH feet Rate Location/Type
Sat 12:15:11 PM 40.8836 -81.4336 143° Southeast 106 122 2,700  Level Cleveland Center
Sat 12:16:13 PM 40.8500 -81.4139 156° South 125 144 3,500 823 Climbing Cleveland Center
Sat 12:17:15 PM 40.8175 -81.3947 156° South 126 145 4,400 878 Climbing Cleveland Center
Sat 12:18:16 PM 40.7808 -81.3736 156° South 126 145 5,300 829 Climbing Cleveland Center
Sat 12:19:18 PM 40.7481 -81.3556 157° South 126 145 6,100 726 Climbing Cleveland Center
Sat 12:20:00 PM 40.9229 -81.0806 143° Southeast  Level Estimated
Sat 12:20:20 PM 40.7150 -81.3372 157° South 126 145 6,800  Level Cleveland Center
Sat 12:21:22 PM 40.6792 -81.3178 158° South 134 154 7,300 537 Climbing Cleveland Center
Sat 12:22:23 PM 40.6422 -81.2986 159° South 139 160 7,900 439 Climbing Cleveland Center
Sat 12:23:25 PM 40.6053 -81.2794 159° South 142 163 8,200 484 Climbing Cleveland Center
Sat 12:24:27 PM 40.5756 -81.2372 133° Southeast 156 180 8,900 484 Climbing Cleveland Center
Sat 12:25:29 PM 40.5572 -81.1869 116° Southeast 156 180 9,200 145 Climbing Cleveland Center
Sat 12:26:31 PM 40.5403 -81.1317 112° Southeast 163 188 9,200  Level Cleveland Center
Sat 12:27:33 PM 40.5231 -81.0761 112° Southeast 163 188 9,200  Level Cleveland Center
Sat 12:28:34 PM 40.5058 -81.0214 112° Southeast 163 188 9,200  Level Cleveland Center
Sat 12:29:36 PM 40.4881 -80.9656 113° Southeast 165 190 9,200  Level Cleveland Center
Sat 12:30:38 PM 40.4683 -80.8989 111° Southeast 165 190 9,200  Level Cleveland Center
Sat 12:31:40 PM 40.4506 -80.8439 113° Southeast 164 189 9,200  Level Cleveland Center
Sat 12:32:42 PM 40.4339 -80.7878 111° Southeast 165 190 9,200  Level Cleveland Center
Sat 12:33:44 PM 40.4158 -80.7333 114° Southeast 165 190 9,200  Level Cleveland Center
Sat 12:34:46 PM 40.3986 -80.6767 112° Southeast 165 190 9,200  Level Cleveland Center
Sat 12:35:48 PM 40.3806 -80.6217 113° Southeast 165 190 9,200  Level Cleveland Center
Sat 12:36:50 PM 40.3597 -80.5550 112° Southeast 165 190 9,200  Level Cleveland Center
Sat 12:37:52 PM 40.3425 -80.4989 112° Southeast 165 190 9,200  Level Cleveland Center
Sat 12:38:54 PM 40.3244 -80.4422 113° Southeast 165 190 9,200  Level Cleveland Center
Sat 12:39:56 PM 40.3067 -80.3872 113° Southeast 166 191 9,200  Level Cleveland Center
Sat 12:40:58 PM 40.2897 -80.3328 112° Southeast 165 190 9,200  Level Cleveland Center
Sat 12:42:00 PM 40.2692 -80.2669 112° Southeast 165 190 9,200  Level Cleveland Center
Sat 12:43:03 PM 40.2519 -80.2117 112° Southeast 165 190 9,200  Level Cleveland Center
Sat 12:44:05 PM 40.2339 -80.1564 113° Southeast 165 190 9,200  Level Cleveland Center
Sat 12:45:07 PM 40.2194 -80.0992 108° East 166 191 9,200  Level Cleveland Center
Sat 12:46:09 PM 40.2367 -80.0264 73° East 178 205 9,200  Level Cleveland Center
Sat 12:47:11 PM 40.2447 -79.9656 80° East 175 201 9,200  Level Cleveland Center
Sat 12:48:13 PM 40.2519 -79.9042 81° East 175 201 9,200  Level Cleveland Center
Sat 12:49:15 PM 40.2597 -79.8439 80° East 174 200 9,200  Level Cleveland Center
Sat 12:50:17 PM 40.2675 -79.7825 81° East 173 199 9,200  Level Cleveland Center
Sat 12:51:19 PM 40.2747 -79.7214 81° East 173 199 9,200  Level Cleveland Center
Sat 12:52:21 PM 40.2842 -79.6478 80° East 173 199 9,200  Level Cleveland Center
Sat 12:53:23 PM 40.2908 -79.5864 82° East 172 198 9,200  Level Cleveland Center
Sat 12:54:25 PM 40.2986 -79.5250 81° East 172 198 9,200  Level Cleveland Center
Sat 12:55:27 PM 40.3064 -79.4619 81° East 173 199 9,200  Level Cleveland Center
Sat 12:56:29 PM 40.3136 -79.3994 81° East 173 199 9,200  Level Cleveland Center
Sat 12:57:31 PM 40.3233 -79.3247 80° East 173 199 9,200 48 Level Cleveland Center
Sat 12:58:33 PM 40.3311 -79.2636 81° East 174 200 9,300  Climbing Cleveland Center
Sat 12:59:35 PM 40.3386 -79.2017 81° East 174 200 9,200 -48 Descending Cleveland Center
Sat 01:00:37 PM 40.3458 -79.1411 81° East 173 199 9,200  Level Cleveland Center
Sat 01:01:39 PM 40.3544 -79.0683 81° East 173 199 9,200  Level Cleveland Center
Sat 01:02:41 PM 40.3608 -79.0075 82° East 172 198 9,200  Level Cleveland Center
Sat 01:03:43 PM 40.3686 -78.9500 80° East 168 193 9,200  Level Cleveland Center
Sat 01:04:45 PM 40.3753 -78.8906 82° East 168 193 9,200  Level Cleveland Center
Sat 01:05:47 PM 40.3828 -78.8328 80° East 166 191 9,200  Level Cleveland Center
Sat 01:06:49 PM 40.3911 -78.7631 81° East 165 190 9,200  Level Cleveland Center
Sat 01:07:51 PM 40.3972 -78.7053 82° East 164 189 9,200  Level Cleveland Center
Sat 01:08:53 PM 40.4042 -78.6461 81° East 164 189 9,200  Level Cleveland Center
Sat 01:09:55 PM 40.4108 -78.5867 82° East 166 191 9,200  Level Cleveland Center
Sat 01:10:57 PM 40.4181 -78.5269 81° East 166 191 9,200  Level Cleveland Center
Sat 01:11:59 PM 40.4264 -78.4539 81° East 167 192 9,200  Level Cleveland Center
Sat 01:13:01 PM 40.4331 -78.3947 82° East 167 192 9,200  Level Cleveland Center
Sat 01:14:03 PM 40.4403 -78.3350 81° East 167 192 9,200  Level Cleveland Center
Sat 01:15:05 PM 40.4461 -78.2758 83° East 167 192 9,200  Level Cleveland Center
Sat 01:16:07 PM 40.4531 -78.2164 81° East 167 192 9,200  Level Cleveland Center
Sat 01:17:09 PM 40.4608 -78.1442 82° East 167 192 9,200  Level Cleveland Center
Sat 01:18:11 PM 40.4681 -78.0847 81° East 167 192 9,200  Level Cleveland Center
Sat 01:19:13 PM 40.4750 -78.0247 81° East 167 192 9,200  Level Cleveland Center
Sat 01:20:15 PM 40.4806 -77.9647 83° East 167 192 9,200  Level Cleveland Center
Sat 01:21:17 PM 40.4872 -77.9061 81° East 167 192 9,200  Level Cleveland Center
Sat 01:22:19 PM 40.4950 -77.8347 82° East 166 191 9,200  Level Cleveland Center
Sat 01:23:21 PM 40.5003 -77.7747 83° East 166 191 9,200  Level Cleveland Center
Sat 01:24:23 PM 40.5072 -77.7158 81° East 166 191 9,200 48 Level Cleveland Center
Sat 01:25:25 PM 40.5136 -77.6572 82° East 166 191 9,300 48 Climbing Cleveland Center
Sat 01:26:27 PM 40.5197 -77.5981 82° East 166 191 9,300  Level Cleveland Center
Sat 01:27:29 PM 40.5281 -77.5242 82° East 167 192 9,300  Level Cleveland Center
Sat 01:28:31 PM 40.5339 -77.4622 83° East 170 196 9,300  Level Cleveland Center
Sat 01:29:33 PM 40.5406 -77.4011 82° East 170 196 9,300  Level Cleveland Center
Sat 01:30:35 PM 40.5472 -77.3394 82° East 170 196 9,300 -49 Level Cleveland Center
Sat 01:31:36 PM 40.5517 -77.2694 85° East 163 188 9,200 -49 Descending New York Center
Sat 01:32:38 PM 40.5611 -77.2103 78° East 163 188 9,200  Level New York Center
Sat 01:33:38 PM 40.5644 -77.1475 86° East 163 188 9,200  Level New York Center
Sat 01:34:37 PM 40.5719 -77.0853 81° East 163 188 9,200  Level New York Center
Sat 01:35:38 PM 40.5772 -77.0258 83° East 163 188 9,200  Level New York Center
Sat 01:36:36 PM 40.5847 -76.9636 81° East 163 188 9,200  Level New York Center
Sat 01:37:36 PM 40.5900 -76.9011 84° East 163 188 9,200 -49 Level New York Center
Sat 01:38:38 PM 40.5972 -76.8417 81° East 163 188 9,100  Descending New York Center
Sat 01:39:36 PM 40.6047 -76.7794 81° East 163 188 9,200 49 Climbing New York Center
Sat 01:40:40 PM 40.6097 -76.7169 84° East 163 188 9,200  Level New York Center
Sat 01:41:37 PM 40.6150 -76.6572 83° East 163 188 9,200  Level New York Center
Sat 01:42:38 PM 40.6203 -76.5922 84° East 163 188 9,200 -49 Level New York Center
Sat 01:43:39 PM 40.6275 -76.5297 81° East 163 188 9,100 -50 Descending New York Center
Sat 01:44:38 PM 40.6325 -76.4672 84° East 163 188 9,100  Level New York Center
Sat 01:45:38 PM 40.6372 -76.4131 83° East 163 188 9,100  Level New York Center
Sat 01:46:38 PM 40.6444 -76.3508 81° East 163 188 9,100 50 Level New York Center
Sat 01:47:38 PM 40.6536 -76.2858 79° East 158 182 9,200 50 Climbing New York Center
Sat 01:48:37 PM 40.6689 -76.2267 71° East 158 182 9,200  Level New York Center
Sat 01:49:38 PM 40.6842 -76.1650 72° East 164 189 9,200  Level New York Center
Sat 01:50:38 PM 40.6992 -76.1142 69° East 164 189 9,200 -261 Level New York Center
Sat 01:51:33 PM 40.7100 -76.0547 76° East 174 200 8,700 -569 Descending New York Center
Sat 01:52:34 PM 40.7253 -75.9958 71° East 161 185 8,100 -528 Descending New York Center
Sat 01:53:38 PM 40.7403 -75.9394 71° East 159 183 7,600 -454 Descending New York Center
Sat 01:54:33 PM 40.7531 -75.8800 74° East 168 193 7,200 -200 Descending New York Center
Sat 01:55:38 PM 40.7683 -75.8208 71° East 165 190 7,200  Level New York Center
Sat 01:56:36 PM 40.7833 -75.7617 71° East 160 184 7,200 -108 Level New York Center
Sat 01:57:29 PM 40.7936 -75.7158 73° East 160 184 7,000 -350 Descending New York Center
Sat 01:58:36 PM 40.8131 -75.6461 70° East 167 192 6,500 -496 Descending New York Center
Sat 01:59:30 PM 40.8236 -75.5919 76° East 177 204 6,000 -522 Descending New York Center
Sat 02:00:31 PM 40.8386 -75.5300 72° East 175 201 5,500 -393 Descending New York Center
Sat 02:01:32 PM 40.8517 -75.4675 75° East 165 190 5,200 -148 Descending New York Center
Sat 02:02:33 PM 40.8658 -75.4192 69° East 160 184 5,200  Level New York Center
Sat 02:03:34 PM 40.8789 -75.3542 75° East 162 186 5,200  Level New York Center
Sat 02:04:35 PM 40.8956 -75.3006 68° East 164 189 5,200  Level New York Center
Sat 02:05:29 PM 40.9061 -75.2464 76° East 163 188 5,200  Level New York Center
Sat 02:06:36 PM 40.9208 -75.1869 72° East 162 186 5,200  Level New York Center
Sat 02:07:30 PM 40.9331 -75.1328 73° East 160 184 5,200  Level New York Center
Sat 02:08:30 PM 40.9456 -75.0814 72° East 160 184 5,200  Level New York Center
Sat 02:10:50 PM 40.9833 -74.9333 71° East 157 181 5,200  Level New York TRACON
Sat 02:11:50 PM 40.9833 -74.8833 90° East 160 184 5,200  Level New York TRACON
Sat 02:12:50 PM 41.0000 -74.8333 66° East 160 184 5,200 -50 Level New York TRACON
Sat 02:13:51 PM 41.0000 -74.7667 90° East 164 189 5,100 -350 Descending New York TRACON
Sat 02:14:50 PM 41.0167 -74.7000 72° East 169 194 4,500 -450 Descending New York TRACON
Sat 02:15:51 PM 41.0167 -74.6500 90° East 167 192 4,200 -149 Descending New York TRACON
Sat 02:16:51 PM 41.0333 -74.5833 72° East 155 178 4,200  Level New York TRACON
Sat 02:17:51 PM 41.0333 -74.5333 90° East 156 180 4,200  Level New York TRACON
Sat 02:18:51 PM 41.0333 -74.4667 90° East 159 183 4,200  Level New York TRACON
Sat 02:19:51 PM 41.0500 -74.4167 66° East 153 176 4,200 -144 Level New York TRACON
Sat 02:20:56 PM 41.0500 -74.3667 90° East 153 176 3,900 -384 Descending New York TRACON
Sat 02:21:56 PM 41.0500 -74.3000 90° East 160 184 3,400 -365 Descending New York TRACON
Sat 02:22:51 PM 41.0500 -74.2500 90° East 151 174 3,200 -157 Descending New York TRACON
Sat 02:23:51 PM 41.0500 -74.2000 90° East 147 169 3,100 -300 Descending New York TRACON
Sat 02:24:51 PM 41.0333 -74.1500 114° Southeast 160 184 2,600 -429 Descending New York TRACON
Sat 02:25:57 PM 41.0333 -74.0833 90° East 156 180 2,200 -190 Descending New York TRACON
Sat 02:26:57 PM 41.0000 -74.0500 143° Southeast 134 154 2,200  Level New York TRACON
Sat 02:27:51 PM 40.9667 -74.0500 180° South 139 160 2,200 -211 Level New York TRACON
Sat 02:28:51 PM 40.9333 -74.0500 180° South 139 160 1,800 -600 Descending New York TRACON
Sat 02:29:51 PM 40.9000 -74.0500 180° South 120 138 1,000 -700 Descending New York TRACON
Sat 02:30:51 PM 40.8667 -74.0667 201° Southwest 107 123 400 -600 Descending New York TRACON
Sat 02:32:00 PM 40.8500 -74.0500 180° South  Level FlightAware Approximate
Sat 02:39:00 PM 40.8501 -74.0608 180° South  Level Estimated
Sat 02:40:00 PM 40.8501 -74.0608 91° East  Level Estimated

Login

Don't have an account? Register now (free) for customized features, flight alerts, and more!